createdAt,value
2023-02-23T00:01:31.195Z,99754.03
2023-02-23T00:04:06.626Z,99748.94
2023-02-23T00:06:40.578Z,99740.66
2023-02-23T00:09:24.130Z,99733.97
2023-02-23T00:12:01.544Z,99729.53
2023-02-23T00:14:41.327Z,99716.91
2023-02-23T00:17:16.929Z,99692.31
2023-02-23T00:19:51.671Z,99674.22
2023-02-23T00:22:40.197Z,99669.53
2023-02-23T00:25:13.893Z,99668.63
2023-02-23T00:27:48.512Z,99667.81
2023-02-23T00:30:24.165Z,99678.94
2023-02-23T00:32:56.365Z,99678.59
2023-02-23T00:35:50.307Z,99699.72
2023-02-23T00:38:22.937Z,99704.31
2023-02-23T00:41:17.091Z,99710.72
2023-02-23T00:43:52.423Z,99691.50
2023-02-23T00:46:36.618Z,99688.88
2023-02-23T00:49:05.865Z,99679.31
2023-02-23T00:52:12.573Z,99682.81
2023-02-23T00:54:48.690Z,99677.22
2023-02-23T00:57:24.409Z,99666.97
2023-02-23T01:00:25.826Z,99680.34
2023-02-23T01:03:12.796Z,99674.44
2023-02-23T01:05:41.939Z,99690.09
2023-02-23T01:08:22.834Z,99699.56
2023-02-23T01:11:01.427Z,99684.31
2023-02-23T01:13:40.625Z,99714.13
2023-02-23T01:16:20.364Z,99682.97
2023-02-23T01:18:53.705Z,99707.09
2023-02-23T01:21:45.726Z,99701.56
2023-02-23T01:24:19.457Z,99706.53
2023-02-23T01:26:52.625Z,99693.88
2023-02-23T01:29:25.317Z,99690.66
2023-02-23T01:32:12.700Z,99700.25
2023-02-23T01:34:53.074Z,99690.59
2023-02-23T01:37:25.982Z,99687.47
2023-02-23T01:40:21.464Z,99698.28
2023-02-23T01:42:53.919Z,99692.09
2023-02-23T01:45:44.100Z,99696.13
2023-02-23T01:48:22.025Z,99697.94
2023-02-23T01:51:00.966Z,99688.06
2023-02-23T01:53:44.403Z,99684.09
2023-02-23T01:56:22.193Z,99710.19
2023-02-23T01:59:08.235Z,99706.75
2023-02-23T02:01:45.813Z,99707.66
2023-02-23T02:04:35.531Z,99710.75
2023-02-23T02:07:13.616Z,99705.81
2023-02-23T02:10:17.624Z,99704.47
2023-02-23T02:13:40.870Z,99706.59
2023-02-23T02:16:39.964Z,99711.19
2023-02-23T02:19:20.804Z,99720.88
2023-02-23T02:22:36.504Z,99722.78
2023-02-23T02:25:42.280Z,99707.19
2023-02-23T02:28:46.381Z,99716.03
2023-02-23T02:31:50.411Z,99720.81
2023-02-23T02:34:40.549Z,99710.91
2023-02-23T02:37:17.710Z,99723.19
2023-02-23T02:40:17.840Z,99709.75
2023-02-23T02:43:17.371Z,99718.56
2023-02-23T02:46:01.800Z,99719.69
2023-02-23T02:49:08.701Z,99722.69
2023-02-23T04:07:48.668Z,99545.69
2023-02-23T04:15:15.958Z,99499.75
2023-02-23T04:17:49.862Z,99506.88
2023-02-23T04:20:25.390Z,99503.28
2023-02-23T04:23:05.924Z,99520.91
2023-02-23T04:25:41.571Z,99513.53
2023-02-23T04:28:18.600Z,99525.50
2023-02-23T04:30:50.581Z,99521.41
2023-02-23T04:33:26.056Z,99516.47
2023-02-23T04:36:16.183Z,99500.72
2023-02-23T04:38:48.223Z,99509.41
2023-02-23T04:41:21.167Z,99516.03
2023-02-23T04:43:53.350Z,99540.78
2023-02-23T04:46:26.510Z,99534.38
2023-02-23T04:49:09.457Z,99531.53
2023-02-23T04:51:44.153Z,99543.06
2023-02-23T04:54:18.033Z,99530.03
2023-02-23T04:56:53.138Z,99523.34
2023-02-23T04:59:25.813Z,99529.44
2023-02-23T05:02:36.572Z,99539.34
2023-02-23T05:05:06.817Z,99546.59
2023-02-23T05:07:40.940Z,99546.28
2023-02-23T05:10:14.181Z,99548.41
2023-02-23T05:12:49.014Z,99542.81
2023-02-23T05:15:19.266Z,99535.56
2023-02-23T05:18:01.459Z,99541.81
2023-02-23T05:20:37.261Z,99543.53
2023-02-23T05:23:07.363Z,99541.13
2023-02-23T05:25:41.886Z,99525.06
2023-02-23T05:28:16.544Z,99549.81
2023-02-23T05:30:46.187Z,99524.81
2023-02-23T05:33:18.395Z,99527.31
2023-02-23T05:35:54.270Z,99493.19
2023-02-23T05:38:42.210Z,99484.03
2023-02-23T05:41:24.176Z,99467.53
2023-02-23T05:44:21.734Z,99453.41
2023-02-23T05:46:56.060Z,99478.50
2023-02-23T05:49:34.057Z,99466.38
2023-02-23T05:52:08.946Z,99494.25
2023-02-23T05:54:48.720Z,99496.34
2023-02-23T05:57:23.150Z,99473.03
2023-02-23T06:00:01.944Z,99481.09
2023-02-23T06:02:41.240Z,99496.16
2023-02-23T06:05:17.602Z,99503.53
2023-02-23T06:07:48.389Z,99500.66
2023-02-23T06:10:18.799Z,99512.81
2023-02-23T06:12:53.033Z,99507.22
2023-02-23T06:15:24.303Z,99497.94
2023-02-23T06:18:01.013Z,99487.63
2023-02-23T06:20:38.180Z,99471.94
2023-02-23T06:23:14.576Z,99468.84
2023-02-23T06:25:50.204Z,99449.88
2023-02-23T06:28:24.798Z,99424.66
2023-02-23T06:31:00.666Z,99417.00
2023-02-23T06:33:37.566Z,99393.16
2023-02-23T06:36:17.654Z,99395.56
2023-02-23T06:38:49.300Z,99417.47
2023-02-23T06:41:20.487Z,99405.31
2023-02-23T06:43:58.268Z,99395.84
2023-02-23T06:46:40.998Z,99403.38
2023-02-23T06:49:20.210Z,99394.56
2023-02-23T06:51:50.243Z,99393.59
2023-02-23T06:54:24.743Z,99382.44
2023-02-23T06:57:02.047Z,99375.44
2023-02-23T06:59:42.059Z,99389.53
2023-02-23T07:02:16.593Z,99405.44
2023-02-23T07:04:48.290Z,99384.44
2023-02-23T07:07:18.437Z,99392.19
2023-02-23T07:09:52.117Z,99398.00
2023-02-23T07:12:24.549Z,99402.13
2023-02-23T07:14:56.028Z,99390.63
2023-02-23T07:17:37.822Z,99383.56
2023-02-23T07:20:19.491Z,99375.25
2023-02-23T07:22:50.113Z,99378.16
2023-02-23T07:25:25.960Z,99378.59
2023-02-23T07:28:04.642Z,99365.75
2023-02-23T07:30:38.060Z,99377.81
2023-02-23T07:33:18.443Z,99360.00
2023-02-23T07:35:53.571Z,99373.03
2023-02-23T07:38:24.986Z,99350.63
2023-02-23T07:41:01.582Z,99330.44
2023-02-23T07:43:38.530Z,99333.94
2023-02-23T07:46:17.893Z,99338.69
2023-02-23T07:48:52.909Z,99334.81
2023-02-23T07:51:24.852Z,99335.44
2023-02-23T07:54:00.929Z,99330.09
2023-02-23T07:56:41.280Z,99334.56
2023-02-23T07:59:22.586Z,99321.66
2023-02-23T08:01:56.220Z,99308.47
2023-02-23T08:04:37.022Z,99319.06
2023-02-23T08:07:12.152Z,99320.97
2023-02-23T08:09:48.795Z,99311.28
2023-02-23T08:12:20.831Z,99312.72
2023-02-23T08:14:52.479Z,99302.03
2023-02-23T08:17:24.285Z,99297.50
2023-02-23T08:20:01.680Z,99308.22
2023-02-23T08:22:47.357Z,99312.97
2023-02-23T08:25:41.018Z,99314.97
2023-02-23T08:28:14.939Z,99303.69
2023-02-23T08:30:49.164Z,99293.84
2023-02-23T08:33:18.732Z,99300.81
2023-02-23T08:35:52.868Z,99300.97
2023-02-23T08:38:25.116Z,99303.69
2023-02-23T08:41:08.159Z,99297.47
2023-02-23T08:43:41.042Z,99296.09
2023-02-23T08:46:15.633Z,99308.09
2023-02-23T08:48:53.833Z,99294.84
2023-02-23T08:51:36.070Z,99277.78
2023-02-23T08:54:44.622Z,99272.81
2023-02-23T08:57:16.398Z,99281.38
2023-02-23T08:59:50.608Z,99290.03
2023-02-23T09:02:25.494Z,99268.19
2023-02-23T09:05:18.264Z,99292.47
2023-02-23T09:07:49.996Z,99302.19
2023-02-23T09:10:25.980Z,99299.50
2023-02-23T09:13:06.021Z,99296.44
2023-02-23T09:16:10.648Z,99300.94
2023-02-23T09:18:47.453Z,99318.25
2023-02-23T09:21:24.837Z,99314.13
2023-02-23T09:24:04.526Z,99325.69
2023-02-23T09:26:45.906Z,99327.13
2023-02-23T09:29:20.064Z,99339.47
2023-02-23T09:31:55.329Z,99332.28
2023-02-23T09:34:44.651Z,99360.91
2023-02-23T09:37:14.221Z,99358.41
2023-02-23T09:39:48.402Z,99350.59
2023-02-23T09:42:24.713Z,99350.78
2023-02-23T09:45:22.223Z,99363.13
2023-02-23T09:48:08.822Z,99361.19
2023-02-23T09:50:46.100Z,99365.78
2023-02-23T09:53:46.665Z,99356.88
2023-02-23T09:56:40.725Z,99351.69
2023-02-23T09:59:22.887Z,99373.13
2023-02-23T10:02:30.218Z,99382.34
2023-02-23T10:05:10.457Z,99404.44
2023-02-23T10:08:05.677Z,99393.88
2023-02-23T10:11:20.061Z,99384.53
2023-02-23T10:13:52.686Z,99367.47
2023-02-23T10:16:44.692Z,99382.34
2023-02-23T10:19:34.286Z,99373.84
2023-02-23T10:22:12.380Z,99376.41
2023-02-23T10:24:53.088Z,99386.88
2023-02-23T10:27:34.301Z,99383.78
2023-02-23T10:30:36.977Z,99389.41
2023-02-23T10:33:18.062Z,99398.13
2023-02-23T10:36:12.928Z,99420.84
2023-02-23T10:38:51.070Z,99434.78
2023-02-23T10:41:20.626Z,99472.19
2023-02-23T10:43:53.361Z,99480.66
2023-02-23T10:46:41.551Z,99443.72
2023-02-23T10:49:24.652Z,99460.19
2023-02-23T10:52:14.443Z,99460.38
2023-02-23T10:54:54.913Z,99504.69
2023-02-23T10:57:41.851Z,99466.13
2023-02-23T11:00:21.861Z,99462.13
2023-02-23T11:02:54.766Z,99468.09
2023-02-23T11:05:49.708Z,99460.44
2023-02-23T11:08:44.771Z,99447.78
2023-02-23T11:11:24.381Z,99422.69
2023-02-23T11:13:56.372Z,99415.50
2023-02-23T11:16:46.732Z,99443.53
2023-02-23T11:19:36.601Z,99421.69
2023-02-23T11:22:25.283Z,99440.13
2023-02-23T11:25:06.404Z,99412.22
2023-02-23T11:27:37.950Z,99409.00
2023-02-23T11:30:14.056Z,99411.94
2023-02-23T11:33:00.407Z,99425.09
2023-02-23T11:35:34.430Z,99433.53
2023-02-23T11:38:40.917Z,99440.53
2023-02-23T11:41:26.400Z,99447.09
2023-02-23T11:44:08.737Z,99431.50
2023-02-23T11:46:44.943Z,99469.34
2023-02-23T11:49:32.615Z,99457.91
2023-02-23T11:52:14.168Z,99472.19
2023-02-23T11:55:06.325Z,99476.13
2023-02-23T11:57:38.211Z,99498.00
2023-02-23T12:00:26.262Z,99496.09
2023-02-23T12:03:18.460Z,99490.06
2023-02-23T12:05:58.439Z,99491.75
2023-02-23T12:09:08.259Z,99496.59
2023-02-23T12:11:48.794Z,99521.59
2023-02-23T12:14:42.592Z,99541.75
2023-02-23T12:17:26.300Z,99529.97
2023-02-23T12:20:38.498Z,99517.56
2023-02-23T12:23:26.056Z,99549.28
2023-02-23T12:26:18.194Z,99547.34
2023-02-23T12:29:21.958Z,99565.75
2023-02-23T12:32:10.688Z,99535.03
2023-02-23T12:35:12.436Z,99554.28
2023-02-23T12:38:09.230Z,99557.03
2023-02-23T12:40:45.406Z,99553.84
2023-02-23T12:43:24.387Z,99560.56
2023-02-23T12:46:25.190Z,99588.94
2023-02-23T12:49:17.904Z,99579.56
2023-02-23T12:52:10.546Z,99582.25
2023-02-23T12:54:44.923Z,99593.81
2023-02-23T12:57:31.428Z,99605.75
2023-02-23T13:00:42.301Z,99601.47
2023-02-23T13:03:38.443Z,99619.28
2023-02-23T13:06:26.190Z,99617.50
2023-02-23T13:09:18.802Z,99616.03
2023-02-23T13:12:38.651Z,99626.03
2023-02-23T13:15:32.433Z,99621.44
2023-02-23T13:18:09.213Z,99632.38
2023-02-23T13:20:50.210Z,99631.28
2023-02-23T13:24:05.384Z,99626.47
2023-02-23T13:27:09.279Z,99633.72
2023-02-23T13:30:02.670Z,99649.66
2023-02-23T13:32:41.135Z,99661.47
2023-02-23T13:35:22.772Z,99677.81
2023-02-23T13:39:19.183Z,99664.81
2023-02-23T13:42:05.158Z,99688.38
2023-02-23T13:45:10.600Z,99694.28
2023-02-23T13:48:13.118Z,99673.47
2023-02-23T13:51:02.557Z,99683.97
2023-02-23T13:53:49.128Z,99675.84
2023-02-23T13:56:24.684Z,99673.94
2023-02-23T13:59:25.162Z,99661.66
2023-02-23T14:01:56.661Z,99660.22
2023-02-23T14:04:44.986Z,99665.13
2023-02-23T14:07:34.629Z,99652.69
2023-02-23T14:10:17.959Z,99655.19
2023-02-23T14:13:24.513Z,99662.06
2023-02-23T14:16:17.197Z,99668.84
2023-02-23T14:19:16.953Z,99667.97
2023-02-23T14:22:26.366Z,99661.31
2023-02-23T14:25:37.811Z,99673.03
2023-02-23T14:28:44.357Z,99658.09
2023-02-23T14:31:25.001Z,99645.34
2023-02-23T14:34:25.528Z,99642.97
2023-02-23T14:37:46.405Z,99628.16
2023-02-23T14:40:32.959Z,99625.13
2023-02-23T14:43:45.994Z,99651.06
2023-02-23T14:46:27.973Z,99642.63
2023-02-23T14:49:24.845Z,99629.66
2023-02-23T14:52:06.384Z,99628.25
2023-02-23T14:54:42.869Z,99629.72
2023-02-23T14:57:33.807Z,99644.06
2023-02-23T15:00:45.102Z,99641.97
2023-02-23T15:03:16.443Z,99648.97
2023-02-23T15:06:06.097Z,99653.13
2023-02-23T15:08:49.889Z,99635.19
2023-02-23T15:11:29.983Z,99650.91
2023-02-23T15:14:21.851Z,99654.47
2023-02-23T15:17:08.911Z,99653.44
2023-02-23T15:19:50.284Z,99650.47
2023-02-23T15:22:36.506Z,99645.03
2023-02-23T15:25:25.591Z,99648.19
2023-02-23T15:28:04.451Z,99643.94
2023-02-23T15:30:37.928Z,99662.78
2023-02-23T15:33:25.749Z,99660.47
2023-02-23T15:36:24.950Z,99668.38
2023-02-23T15:39:06.229Z,99669.38
2023-02-23T15:41:42.125Z,99670.28
2023-02-23T15:44:38.367Z,99658.28
2023-02-23T15:47:42.135Z,99663.03
2023-02-23T15:50:37.302Z,99667.69
2023-02-23T15:53:40.803Z,99668.25
2023-02-23T15:56:33.483Z,99676.19
2023-02-23T15:59:17.962Z,99668.78
2023-02-23T16:02:01.440Z,99671.16
2023-02-23T16:04:44.800Z,99680.97
2023-02-23T16:07:32.409Z,99673.78
2023-02-23T16:10:30.739Z,99673.28
2023-02-23T16:13:17.341Z,99686.47
2023-02-23T16:15:54.451Z,99687.03
2023-02-23T16:18:45.173Z,99691.34
2023-02-23T16:21:25.346Z,99694.09
2023-02-23T16:24:16.710Z,99682.38
2023-02-23T16:27:05.496Z,99692.00
2023-02-23T16:29:45.367Z,99690.72
2023-02-23T16:32:26.853Z,99692.41
2023-02-23T16:35:40.926Z,99690.38
2023-02-23T16:38:21.922Z,99682.53
2023-02-23T16:41:01.886Z,99690.19
2023-02-23T16:43:43.302Z,99681.97
2023-02-23T16:46:21.366Z,99684.16
2023-02-23T16:49:13.363Z,99700.25
2023-02-23T16:51:54.431Z,99693.56
2023-02-23T16:54:55.977Z,99692.25
2023-02-23T16:57:54.355Z,99682.72
2023-02-23T17:00:38.597Z,99684.47
2023-02-23T17:03:22.968Z,99688.66
2023-02-23T17:06:18.960Z,99685.38
2023-02-23T17:08:58.410Z,99687.00
2023-02-23T17:11:41.938Z,99681.75
2023-02-23T17:14:34.387Z,99694.84
2023-02-23T17:17:08.630Z,99689.25
2023-02-23T17:19:41.313Z,99683.44
2023-02-23T17:22:17.532Z,99683.25
2023-02-23T17:24:51.110Z,99683.69
2023-02-23T17:27:26.719Z,99687.66
2023-02-23T17:30:14.400Z,99685.78
2023-02-23T17:32:48.736Z,99686.28
2023-02-23T17:35:21.321Z,99703.41
2023-02-23T17:37:54.942Z,99691.34
2023-02-23T17:40:38.230Z,99694.75
2023-02-23T17:43:12.975Z,99688.63
2023-02-23T17:45:50.908Z,99688.75
2023-02-23T17:48:31.766Z,99686.38
2023-02-23T17:51:14.071Z,99674.88
2023-02-23T17:53:47.831Z,99680.34
2023-02-23T17:56:22.555Z,99684.25
2023-02-23T17:58:56.576Z,99680.97
2023-02-23T18:01:32.789Z,99681.38
2023-02-23T18:04:08.912Z,99685.34
2023-02-23T18:06:38.630Z,99679.84
2023-02-23T18:09:16.556Z,99682.19
2023-02-23T18:11:49.436Z,99690.81
2023-02-23T18:14:20.795Z,99676.63
2023-02-23T18:16:50.542Z,99678.50
2023-02-23T18:19:22.425Z,99673.47
2023-02-23T18:22:02.754Z,99669.97
2023-02-23T18:24:36.433Z,99662.84
2023-02-23T18:27:09.411Z,99666.06
2023-02-23T18:29:46.316Z,99667.06
2023-02-23T18:32:20.758Z,99674.44
2023-02-23T18:34:52.966Z,99676.63
2023-02-23T18:37:26.242Z,99669.50
2023-02-23T18:40:10.494Z,99671.06
2023-02-23T18:42:45.116Z,99671.09
2023-02-23T18:45:18.017Z,99670.38
2023-02-23T18:47:54.802Z,99663.25
2023-02-23T18:50:38.921Z,99670.31
2023-02-23T18:53:13.065Z,99678.47
2023-02-23T18:55:47.133Z,99670.16
2023-02-23T18:58:18.927Z,99671.09
2023-02-23T19:00:50.845Z,99671.00
2023-02-23T19:03:22.942Z,99670.78
2023-02-23T19:06:18.145Z,99662.88
2023-02-23T19:09:15.200Z,99669.53
2023-02-23T19:11:46.756Z,99668.25
2023-02-23T19:14:41.005Z,99665.47
2023-02-23T19:17:16.975Z,99672.16
2023-02-23T19:19:48.825Z,99671.03
2023-02-23T19:22:20.519Z,99668.91
2023-02-23T19:24:56.445Z,99670.38
2023-02-23T19:27:35.968Z,99668.13
2023-02-23T19:30:11.920Z,99671.78
2023-02-23T19:32:47.752Z,99674.06
2023-02-23T19:35:25.176Z,99667.28
2023-02-23T19:37:56.864Z,99674.22
2023-02-23T19:40:38.765Z,99686.56
2023-02-23T19:43:14.289Z,99681.34
2023-02-23T19:45:48.885Z,99681.25
2023-02-23T19:48:20.739Z,99678.97
2023-02-23T19:50:54.634Z,99686.31
2023-02-23T19:53:33.938Z,99690.81
2023-02-23T19:56:13.086Z,99682.53
2023-02-23T19:58:48.192Z,99687.84
2023-02-23T20:01:23.032Z,99686.22
2023-02-23T20:04:05.165Z,99691.31
2023-02-23T20:06:46.576Z,99689.22
2023-02-23T20:09:19.520Z,99698.41
2023-02-23T20:11:51.312Z,99682.25
2023-02-23T20:14:26.655Z,99696.75
2023-02-23T20:17:06.114Z,99694.22
2023-02-23T20:19:38.230Z,99698.53
2023-02-23T20:22:16.527Z,99693.69
2023-02-23T20:24:48.822Z,99702.53
2023-02-23T20:27:23.903Z,99700.31
2023-02-23T20:32:53.697Z,99711.00
2023-02-23T20:35:36.974Z,99716.13
2023-02-23T20:38:16.227Z,99701.81
2023-02-23T20:40:50.024Z,99704.53
2023-02-23T20:43:25.496Z,99712.31
2023-02-23T20:46:01.579Z,99716.72
2023-02-23T20:48:38.829Z,99729.19
2023-02-23T20:51:46.490Z,99721.44
2023-02-23T20:54:23.080Z,99733.03
2023-02-23T20:57:03.185Z,99738.69
2023-02-23T20:59:39.598Z,99740.06
2023-02-23T21:02:18.512Z,99729.69
2023-02-23T21:04:51.091Z,99731.31
2023-02-23T21:07:32.976Z,99703.72
2023-02-23T21:10:14.000Z,99679.66
2023-02-23T21:12:48.730Z,99683.16
2023-02-23T21:15:18.986Z,99688.28
2023-02-23T21:17:54.669Z,99679.31
2023-02-23T21:20:37.024Z,99674.94
2023-02-23T21:23:09.012Z,99656.25
2023-02-23T21:25:42.010Z,99666.34
2023-02-23T21:28:18.741Z,99671.03
2023-02-23T21:30:53.110Z,99665.88
2023-02-23T21:33:26.666Z,99670.72
2023-02-23T21:36:06.603Z,99669.59
2023-02-23T21:38:38.620Z,99677.19
2023-02-23T21:41:14.517Z,99670.06
2023-02-23T21:43:49.260Z,99659.09
2023-02-23T21:46:30.082Z,99662.47
2023-02-23T21:49:13.281Z,99651.09
2023-02-23T21:51:45.937Z,99648.25
2023-02-23T21:54:18.153Z,99653.41
2023-02-23T21:56:53.933Z,99648.84
2023-02-23T21:59:27.046Z,99651.56
2023-02-23T22:02:09.646Z,99654.78
2023-02-23T22:04:47.236Z,99650.84
2023-02-23T22:07:18.176Z,99652.22
2023-02-23T22:09:50.814Z,99651.56
2023-02-23T22:12:24.878Z,99651.44
2023-02-23T22:15:14.148Z,99652.94
2023-02-23T22:17:46.183Z,99645.41
2023-02-23T22:20:22.820Z,99651.50
2023-02-23T22:22:56.535Z,99646.38
2023-02-23T22:25:34.448Z,99644.97
2023-02-23T22:28:09.816Z,99654.47
2023-02-23T22:30:52.561Z,99647.50
2023-02-23T22:33:25.920Z,99652.44
2023-02-23T22:36:06.086Z,99656.97
2023-02-23T22:38:47.655Z,99661.50
2023-02-23T22:41:18.117Z,99659.75
2023-02-23T22:43:56.592Z,99674.09
2023-02-23T22:46:42.699Z,99667.81
2023-02-23T22:49:17.839Z,99665.91
2023-02-23T22:51:53.182Z,99664.50
2023-02-23T22:54:30.664Z,99677.31
2023-02-23T22:57:06.955Z,99679.53
2023-02-23T22:59:38.453Z,99676.63
2023-02-23T23:02:14.239Z,99674.47
2023-02-23T23:04:48.946Z,99673.00
2023-02-23T23:07:24.889Z,99663.06
2023-02-23T23:10:06.441Z,99673.00
2023-02-23T23:12:52.238Z,99670.88
2023-02-23T23:15:25.084Z,99678.06
2023-02-23T23:17:57.159Z,99683.69
2023-02-23T23:20:34.621Z,99687.09
2023-02-23T23:23:08.714Z,99679.00
2023-02-23T23:25:43.017Z,99682.19
2023-02-23T23:28:16.865Z,99687.44
2023-02-23T23:30:49.817Z,99691.28
2023-02-23T23:33:22.424Z,99689.25
2023-02-23T23:35:55.260Z,99691.50
2023-02-23T23:39:46.836Z,99693.53
